Time;durP1;ratioP1;P1;durP2;ratioP2;P2;SDS_P1;SDS_P2;PMS_P1;PMS_P2;Temp;Humidity;BMP_temperature;BMP_pressure;BME280_temperature;BME280_humidity;BME280_pressure;Samples;Min_cycle;Max_cycle;Signal;HPM_P1;HPM_P2
2023/01/29 00:01:53;;;;;;;42.78;27.20;;;;;;;-5.12;100.00;102000.22;5031461;27;20033;-78
2023/01/29 00:04:19;;;;;;;45.15;27.90;;;;;;;-5.33;100.00;101965.28;5038381;27;20126;-78
2023/01/29 00:06:45;;;;;;;44.40;29.27;;;;;;;-5.23;100.00;101977.63;5052591;27;20967;-79
2023/01/29 00:09:11;;;;;;;48.33;29.85;;;;;;;-5.10;100.00;101988.38;5029895;27;20026;-77
2023/01/29 00:11:37;;;;;;;43.42;27.60;;;;;;;-5.11;100.00;101989.16;5025238;27;20090;-76
2023/01/29 00:14:02;;;;;;;43.03;27.30;;;;;;;-5.27;100.00;101962.06;5031110;27;20929;-76
2023/01/29 00:16:28;;;;;;;42.58;27.15;;;;;;;-5.12;100.00;101995.09;5036766;27;20096;-77
2023/01/29 00:18:53;;;;;;;43.08;27.70;;;;;;;-5.24;100.00;101981.00;5035786;27;20052;-76
2023/01/29 00:21:21;;;;;;;40.55;27.15;;;;;;;-5.52;100.00;101916.75;5059716;27;20049;-76
2023/01/29 00:23:47;;;;;;;46.58;28.80;;;;;;;-5.21;100.00;101985.38;5069038;27;20820;-76
2023/01/29 00:26:12;;;;;;;47.15;29.90;;;;;;;-5.25;100.00;101971.59;5053812;27;20068;-77
2023/01/29 00:28:38;;;;;;;46.63;28.95;;;;;;;-5.22;100.00;101969.13;5061771;27;20075;-76
2023/01/29 00:31:08;;;;;;;48.20;29.45;;;;;;;-5.22;100.00;101963.13;5045329;27;20033;-77
2023/01/29 00:33:34;;;;;;;44.92;28.05;;;;;;;-5.21;100.00;101967.44;5073911;27;20080;-77
2023/01/29 00:36:02;;;;;;;48.45;30.27;;;;;;;-5.24;100.00;101955.38;5061769;27;20132;-77
2023/01/29 00:38:28;;;;;;;49.72;29.88;;;;;;;-5.37;100.00;101935.25;5050895;27;20137;-76
2023/01/29 00:46:21;;;;;;;48.60;28.55;;;;;;;-5.44;100.00;101925.56;5029756;27;20079;-76
2023/01/29 00:48:46;;;;;;;45.92;28.83;;;;;;;-5.27;100.00;101957.81;5031764;27;20868;-76
2023/01/29 00:51:12;;;;;;;45.35;30.25;;;;;;;-5.30;100.00;101956.84;5019895;27;20048;-76
2023/01/29 00:53:37;;;;;;;52.95;30.30;;;;;;;-5.32;100.00;101959.34;5032032;27;20021;-76
2023/01/29 00:56:03;;;;;;;52.67;29.85;;;;;;;-5.32;100.00;101961.91;5030663;27;20025;-76
2023/01/29 00:58:33;;;;;;;57.47;32.80;;;;;;;-5.34;100.00;101967.78;5011190;27;20025;-76
2023/01/29 01:01:00;;;;;;;48.95;32.22;;;;;;;-5.34;100.00;101963.53;5031904;27;20573;-76
2023/01/29 01:03:25;;;;;;;49.00;30.50;;;;;;;-5.37;100.00;101957.41;5026213;27;20090;-76
2023/01/29 01:06:04;;;;;;;52.30;31.33;;;;;;;-5.34;100.00;101965.25;5020472;27;20073;-76
2023/01/29 01:11:13;;;;;;;52.08;30.75;;;;;;;-5.31;100.00;101961.09;4999046;27;20048;-76
2023/01/29 01:13:39;;;;;;;47.38;29.73;;;;;;;-5.31;100.00;101963.66;5005646;27;21045;-76
2023/01/29 01:16:12;;;;;;;53.03;32.05;;;;;;;-5.35;100.00;101956.69;5015026;27;20034;-75
2023/01/29 01:18:37;;;;;;;51.47;30.55;;;;;;;-5.29;100.00;101959.47;5012248;27;20860;-76
2023/01/29 01:21:03;;;;;;;54.47;32.92;;;;;;;-5.41;100.00;101942.75;4994193;27;20062;-76
2023/01/29 01:23:28;;;;;;;49.40;29.73;;;;;;;-5.34;100.00;101937.91;5004840;27;20936;-76
2023/01/29 01:25:54;;;;;;;56.72;32.60;;;;;;;-5.34;100.00;101935.34;5005603;27;20082;-75
2023/01/29 01:28:20;;;;;;;54.35;33.78;;;;;;;-5.28;100.00;101943.28;4992787;27;20042;-75
2023/01/29 01:30:45;;;;;;;50.20;32.60;;;;;;;-5.29;100.00;101946.66;4996022;27;20029;-75
2023/01/29 01:33:11;;;;;;;55.75;33.45;;;;;;;-5.45;100.00;101912.72;5010815;27;20021;-75
2023/01/29 01:35:37;;;;;;;51.58;32.10;;;;;;;-5.31;100.00;101927.81;4999764;27;20026;-75
2023/01/29 01:38:03;;;;;;;56.50;33.30;;;;;;;-5.41;100.00;101917.16;4980531;28;20815;-75
2023/01/29 01:40:29;;;;;;;49.95;32.90;;;;;;;-5.34;100.00;101934.50;4973493;28;20048;-74
2023/01/29 01:42:56;;;;;;;53.90;32.92;;;;;;;-5.35;100.00;101933.63;4999970;27;20892;-74
2023/01/29 01:45:24;;;;;;;51.92;33.13;;;;;;;-5.34;100.00;101937.91;5004986;27;20036;-75
2023/01/29 01:48:18;;;;;;;56.38;33.03;;;;;;;-5.43;100.00;101927.31;4972112;28;20029;-75
2023/01/29 01:50:53;;;;;;;56.35;32.95;;;;;;;-5.37;100.00;101945.47;5009035;27;20060;-75
2023/01/29 01:53:40;;;;;;;62.67;35.30;;;;;;;-5.38;100.00;101953.13;4970267;28;20030;-75
2023/01/29 01:56:10;;;;;;;59.90;34.63;;;;;;;-5.38;100.00;101940.31;4985469;27;20139;-74
2023/01/29 01:58:49;;;;;;;61.08;33.90;;;;;;;-5.37;100.00;101949.72;4981275;27;20036;-74
2023/01/29 02:01:15;;;;;;;59.30;34.75;;;;;;;-5.40;100.00;101934.25;4998765;27;20029;-74
2023/01/29 02:09:36;;;;;;;56.38;34.45;;;;;;;-5.56;100.00;101937.91;4997101;27;20137;-75
2023/01/29 02:12:04;;;;;;;62.15;35.08;;;;;;;-5.49;100.00;101934.78;4975875;28;20028;-74
2023/01/29 02:14:31;;;;;;;58.03;35.03;;;;;;;-5.46;100.00;101940.00;4999844;27;20033;-74
2023/01/29 02:16:59;;;;;;;59.65;36.15;;;;;;;-5.48;100.00;101949.34;4999622;27;20152;-75
2023/01/29 02:20:00;;;;;;;63.05;36.97;;;;;;;-5.43;100.00;101958.06;4999405;28;20994;-75
2023/01/29 02:22:54;;;;;;;55.17;33.40;;;;;;;-5.42;100.00;101959.81;4990127;27;20039;-74
2023/01/29 02:25:51;;;;;;;50.33;33.08;;;;;;;-5.49;100.00;101957.81;5003818;27;20053;-74
2023/01/29 02:28:25;;;;;;;52.25;31.52;;;;;;;-5.46;100.00;101972.41;4997275;27;20029;-74
2023/01/29 02:31:14;;;;;;;53.38;32.88;;;;;;;-5.50;100.00;101973.97;5011588;27;20033;-74
2023/01/29 02:33:52;;;;;;;56.05;34.03;;;;;;;-5.51;100.00;101973.94;4983289;28;20099;-73
2023/01/29 02:36:23;;;;;;;56.55;35.58;;;;;;;-5.54;100.00;101972.09;4986783;28;20040;-74
2023/01/29 02:39:12;;;;;;;59.95;35.10;;;;;;;-5.55;100.00;101967.81;4982691;27;20044;-73
2023/01/29 02:41:45;;;;;;;52.20;32.40;;;;;;;-5.62;100.00;101955.59;4997730;27;20168;-74
2023/01/29 02:44:23;;;;;;;52.55;33.45;;;;;;;-5.56;100.00;101972.88;4986062;27;20034;-74
2023/01/29 02:47:11;;;;;;;56.97;33.25;;;;;;;-5.59;100.00;101970.19;4995973;27;20032;-74
2023/01/29 02:49:56;;;;;;;57.40;33.67;;;;;;;-5.72;100.00;101953.47;5045799;27;20997;-74
2023/01/29 02:52:25;;;;;;;54.83;35.03;;;;;;;-6.02;100.00;101916.44;5000928;27;20144;-74
2023/01/29 02:55:01;;;;;;;60.97;35.15;;;;;;;-5.67;100.00;101972.44;4971342;28;20028;-74
2023/01/29 02:57:30;;;;;;;53.33;32.38;;;;;;;-5.66;100.00;101974.19;5001346;27;20262;-74
2023/01/29 03:00:05;;;;;;;57.33;36.00;;;;;;;-5.83;100.00;101939.34;4989752;27;20025;-74
2023/01/29 03:02:44;;;;;;;61.88;37.55;;;;;;;-5.65;100.00;101967.38;4972862;28;20094;-73
2023/01/29 03:05:14;;;;;;;61.40;36.35;;;;;;;-5.65;100.00;101964.81;4986333;28;20538;-74
2023/01/29 03:07:45;;;;;;;56.35;36.13;;;;;;;-5.87;100.00;101937.50;4978204;28;20033;-73
2023/01/29 03:10:42;;;;;;;59.83;36.47;;;;;;;-5.73;100.00;101959.38;5010092;27;20085;-73
2023/01/29 03:13:31;;;;;;;59.15;37.53;;;;;;;-5.71;100.00;101963.75;5001182;27;20044;-73
2023/01/29 03:16:06;;;;;;;61.22;36.45;;;;;;;-5.96;100.00;101919.25;4996063;27;20021;-73
2023/01/29 03:18:40;;;;;;;59.60;37.40;;;;;;;-5.65;100.00;101972.50;4992909;27;20025;-73
2023/01/29 03:21:49;;;;;;;56.65;37.08;;;;;;;-5.75;100.00;101958.47;4983288;27;20033;-73
2023/01/29 03:32:13;;;;;;;60.95;36.10;;;;;;;-5.67;100.00;101975.00;4981247;28;20054;-74
2023/01/29 03:34:42;;;;;;;62.95;34.95;;;;;;;-5.98;100.00;101924.28;4994568;27;20144;-74
2023/01/29 03:37:12;;;;;;;61.05;37.55;;;;;;;-5.75;100.00;101978.94;4977903;27;20028;-74
2023/01/29 03:39:38;;;;;;;69.47;38.15;;;;;;;-5.80;100.00;101977.88;4987311;27;20029;-74
2023/01/29 03:42:18;;;;;;;65.78;39.20;;;;;;;-5.73;100.00;101977.31;5010407;27;20032;-74
2023/01/29 03:45:11;;;;;;;66.60;39.40;;;;;;;-5.67;100.00;101982.66;5004637;27;20226;-74
2023/01/29 03:47:39;;;;;;;63.30;40.65;;;;;;;-5.62;100.00;101983.75;5000093;27;20051;-74
2023/01/29 03:50:14;;;;;;;71.57;43.15;;;;;;;-5.55;100.00;101978.06;4997912;27;20174;-74
2023/01/29 03:52:47;;;;;;;76.10;42.72;;;;;;;-5.48;100.00;101969.81;4974101;28;20029;-74
2023/01/29 03:55:21;;;;;;;80.10;42.92;;;;;;;-5.37;100.00;101952.28;4999873;27;20037;-74
2023/01/29 03:57:58;;;;;;;75.20;45.50;;;;;;;-5.48;100.00;101923.72;5002429;27;20036;-74
2023/01/29 04:00:44;;;;;;;84.82;48.17;;;;;;;-5.18;100.00;101945.41;4991084;27;20030;-73
2023/01/29 04:03:19;;;;;;;74.22;46.55;;;;;;;-5.03;100.00;101954.44;4978752;27;20034;-73
2023/01/29 04:05:57;;;;;;;82.90;49.05;;;;;;;-4.97;100.00;101944.44;5037765;27;20098;-74
2023/01/29 04:08:28;;;;;;;87.07;50.17;;;;;;;-4.83;100.00;101948.38;4991203;28;20381;-74
2023/01/29 04:11:00;;;;;;;85.40;49.65;;;;;;;-4.83;100.00;101917.63;4993782;27;20443;-74
2023/01/29 04:13:26;;;;;;;84.82;49.17;;;;;;;-4.65;100.00;101933.66;4994853;27;20923;-74
2023/01/29 04:15:58;;;;;;;85.00;50.25;;;;;;;-4.63;100.00;101932.06;4997198;27;20035;-74
2023/01/29 04:18:24;;;;;;;79.18;48.63;;;;;;;-4.55;100.00;101934.88;5008663;27;20066;-74
2023/01/29 04:20:50;;;;;;;90.03;53.35;;;;;;;-4.49;100.00;101928.25;4995596;28;20034;-74
2023/01/29 04:23:21;;;;;;;78.97;48.05;;;;;;;-4.50;100.00;101917.97;4999599;27;20040;-74
2023/01/29 04:25:52;;;;;;;83.30;48.15;;;;;;;-4.41;100.00;101925.97;4976271;28;20026;-74
2023/01/29 04:28:27;;;;;;;77.03;48.38;;;;;;;-4.35;100.00;101919.34;5016763;27;20029;-74
2023/01/29 04:31:06;;;;;;;83.57;47.42;;;;;;;-4.35;100.00;101918.47;4997648;27;20085;-74
2023/01/29 04:33:39;;;;;;;85.85;48.47;;;;;;;-4.36;100.00;101916.75;4982562;27;20037;-74
2023/01/29 04:36:19;;;;;;;74.05;45.10;;;;;;;-4.40;100.00;101907.22;4995902;27;20086;-74
2023/01/29 04:38:51;;;;;;;75.68;47.47;;;;;;;-4.45;100.00;101912.16;4993266;27;20187;-74
2023/01/29 04:41:19;;;;;;;70.75;43.97;;;;;;;-4.47;100.00;101908.69;4997730;27;20041;-74
2023/01/29 04:44:17;;;;;;;74.78;45.17;;;;;;;-4.49;100.00;101909.44;4991570;27;20121;-74
2023/01/29 04:47:23;;;;;;;76.80;45.55;;;;;;;-4.57;100.00;101898.94;4980604;27;20845;-74
2023/01/29 04:50:01;;;;;;;70.43;43.97;;;;;;;-4.74;100.00;101871.84;5000265;27;20849;-74
2023/01/29 04:52:38;;;;;;;78.70;47.22;;;;;;;-4.56;100.00;101900.66;4980773;27;20029;-74
2023/01/29 04:55:34;;;;;;;82.65;48.50;;;;;;;-4.49;100.00;101900.06;4998790;27;20873;-74
2023/01/29 04:58:25;;;;;;;81.78;47.15;;;;;;;-4.74;100.00;101854.78;5013013;27;20869;-75
2023/01/29 05:00:53;;;;;;;81.40;48.53;;;;;;;-4.58;100.00;101875.78;4979266;28;20049;-75
2023/01/29 05:03:19;;;;;;;79.55;48.58;;;;;;;-4.48;100.00;101885.53;4970286;27;20021;-74
2023/01/29 05:05:48;;;;;;;83.93;48.58;;;;;;;-4.50;100.00;101893.19;4970005;28;20197;-74
2023/01/29 05:08:16;;;;;;;78.43;46.92;;;;;;;-4.54;100.00;101881.09;4997925;27;20030;-74
2023/01/29 05:10:42;;;;;;;75.72;46.00;;;;;;;-4.57;100.00;101883.56;4976888;27;20919;-74
2023/01/29 05:13:11;;;;;;;83.28;47.80;;;;;;;-4.60;100.00;101886.00;4974092;27;20030;-74
2023/01/29 05:15:44;;;;;;;81.75;46.78;;;;;;;-4.52;100.00;101899.06;4985186;27;20029;-74
2023/01/29 05:18:09;;;;;;;76.57;46.55;;;;;;;-4.59;100.00;101881.72;5012407;28;20029;-75
2023/01/29 05:20:37;;;;;;;70.47;44.72;;;;;;;-4.65;100.00;101879.84;4991458;27;20139;-75
2023/01/29 05:23:03;;;;;;;85.45;46.53;;;;;;;-4.60;100.00;101895.38;4987930;27;20032;-74
2023/01/29 05:25:31;;;;;;;87.65;47.47;;;;;;;-4.57;100.00;101896.38;4999850;28;20798;-74
2023/01/29 05:28:10;;;;;;;87.93;48.45;;;;;;;-4.55;100.00;101902.41;4992476;27;20046;-75
2023/01/29 05:30:37;;;;;;;89.57;50.13;;;;;;;-4.48;100.00;101891.56;4987311;27;20027;-75
2023/01/29 05:33:03;;;;;;;87.43;49.92;;;;;;;-4.36;100.00;101891.97;4970347;28;20877;-75
2023/01/29 05:35:29;;;;;;;92.57;48.75;;;;;;;-4.53;100.00;101846.94;4992424;27;20132;-75
2023/01/29 05:37:55;;;;;;;95.63;50.75;;;;;;;-4.21;100.00;101882.22;5021356;27;20038;-75
2023/01/29 05:40:21;;;;;;;87.25;50.40;;;;;;;-4.56;100.00;101803.22;5000850;27;20032;-74
2023/01/29 05:42:46;;;;;;;91.60;51.40;;;;;;;-4.17;100.00;101843.03;5002798;27;20021;-75
2023/01/29 05:45:12;;;;;;;87.45;50.42;;;;;;;-3.86;100.00;101885.94;5007858;27;20037;-75
2023/01/29 05:47:37;;;;;;;89.80;52.00;;;;;;;-3.83;100.00;101872.34;4999501;27;20029;-74
2023/01/29 05:50:03;;;;;;;85.40;50.88;;;;;;;-3.88;100.00;101845.63;4998149;27;20025;-74
2023/01/29 05:52:28;;;;;;;87.60;50.53;;;;;;;-3.62;100.00;101878.16;4999463;27;20069;-74
2023/01/29 05:54:54;;;;;;;92.22;51.95;;;;;;;-3.63;100.00;101868.69;4998378;27;20092;-75
2023/01/29 05:57:19;;;;;;;91.63;51.00;;;;;;;-3.61;100.00;101856.75;5023215;27;20898;-75
2023/01/29 05:59:44;;;;;;;86.97;50.42;;;;;;;-3.49;100.00;101866.53;5015614;27;20093;-75
2023/01/29 06:02:10;;;;;;;87.57;49.38;;;;;;;-3.48;100.00;101858.88;5005438;27;20133;-75
2023/01/29 06:04:35;;;;;;;81.93;48.63;;;;;;;-3.40;100.00;101880.53;4984869;28;20789;-76
2023/01/29 06:07:02;;;;;;;87.35;49.85;;;;;;;-3.38;100.00;101870.31;4995058;27;20985;-75
2023/01/29 06:09:27;;;;;;;83.68;49.20;;;;;;;-3.39;100.00;101859.16;4990888;27;20029;-75
2023/01/29 06:11:53;;;;;;;79.25;49.35;;;;;;;-3.51;100.00;101840.78;5032823;27;20034;-75
2023/01/29 06:14:18;;;;;;;70.22;48.08;;;;;;;-3.24;100.00;101885.28;4988516;27;20026;-76
2023/01/29 06:16:44;;;;;;;80.63;49.35;;;;;;;-3.18;100.00;101879.47;4997617;27;20857;-75
2023/01/29 06:19:09;;;;;;;86.05;49.22;;;;;;;-3.13;100.00;101895.88;4976675;27;20198;-75
2023/01/29 06:21:34;;;;;;;89.55;54.97;;;;;;;-3.29;100.00;101874.03;5041063;27;21010;-75
2023/01/29 06:24:00;;;;;;;85.03;48.65;;;;;;;-3.12;100.00;101895.06;4999370;27;20029;-78
2023/01/29 06:26:25;;;;;;;73.38;44.95;;;;;;;-3.08;100.00;101896.03;4994404;27;20037;-75
2023/01/29 06:28:51;;;;;;;91.88;50.10;;;;;;;-3.11;100.00;101895.09;4987274;27;20542;-76
2023/01/29 06:31:17;;;;;;;76.35;48.95;;;;;;;-3.11;100.00;101895.09;4985929;27;20870;-75
2023/01/29 06:33:43;;;;;;;78.85;46.78;;;;;;;-3.10;100.00;101914.84;4990403;27;20079;-75
2023/01/29 06:36:08;;;;;;;81.75;47.47;;;;;;;-3.03;100.00;101918.47;4996323;27;20136;-75
2023/01/29 06:38:34;;;;;;;85.70;48.03;;;;;;;-2.98;100.00;101934.03;5002369;27;20089;-76
2023/01/29 06:41:10;;;;;;;80.90;46.53;;;;;;;-2.96;100.00;101938.38;4972836;28;20025;-76
2023/01/29 06:43:36;;;;;;;75.40;44.85;;;;;;;-2.93;100.00;101948.75;4995585;27;20062;-76
2023/01/29 06:46:01;;;;;;;78.43;47.03;;;;;;;-2.97;100.00;101940.91;5004294;27;20054;-76
2023/01/29 06:48:27;;;;;;;72.13;44.88;;;;;;;-3.50;100.00;101845.13;5006325;27;20029;-76
2023/01/29 06:50:54;;;;;;;82.72;50.28;;;;;;;-2.92;100.00;101939.34;5002844;27;20021;-76
2023/01/29 06:53:20;;;;;;;70.10;45.97;;;;;;;-2.91;100.00;101930.81;4997796;27;20034;-75
2023/01/29 06:55:52;;;;;;;75.90;46.55;;;;;;;-2.97;100.00;101912.66;5004348;27;20913;-76
2023/01/29 06:58:17;;;;;;;80.10;46.00;;;;;;;-2.84;100.00;101932.72;5001457;27;20273;-76
2023/01/29 07:00:43;;;;;;;78.57;47.53;;;;;;;-2.85;100.00;101925.84;5003135;27;20082;-75
2023/01/29 07:03:08;;;;;;;73.80;45.70;;;;;;;-2.88;100.00;101918.91;4996756;27;20021;-76
2023/01/29 07:05:34;;;;;;;78.63;45.88;;;;;;;-2.89;100.00;101894.03;4976715;27;20022;-75
2023/01/29 07:07:59;;;;;;;73.00;45.20;;;;;;;-2.84;100.00;101891.59;4998523;27;20054;-75
2023/01/29 07:10:24;;;;;;;88.47;47.05;;;;;;;-2.81;100.00;101892.56;4972201;28;20092;-74
2023/01/29 07:12:50;;;;;;;73.40;46.55;;;;;;;-2.80;100.00;101895.97;4993621;27;20953;-75
2023/01/29 07:15:20;;;;;;;77.35;47.80;;;;;;;-2.98;100.00;101875.78;5003707;27;20121;-75
2023/01/29 07:18:13;;;;;;;80.43;46.10;;;;;;;-2.85;100.00;101907.84;4998556;27;20133;-75
2023/01/29 07:20:40;;;;;;;77.85;45.42;;;;;;;-2.89;100.00;101898.28;5003760;27;20089;-75
2023/01/29 07:23:05;;;;;;;84.82;46.50;;;;;;;-2.87;100.00;101891.50;4977658;27;20025;-75
2023/01/29 07:25:33;;;;;;;77.60;46.63;;;;;;;-2.76;100.00;101905.50;4999751;27;20742;-75
2023/01/29 07:28:01;;;;;;;79.05;47.70;;;;;;;-2.83;100.00;101891.63;4993134;28;20070;-75
2023/01/29 07:30:27;;;;;;;80.25;50.00;;;;;;;-2.74;100.00;101889.28;5034205;27;20021;-75
2023/01/29 07:32:52;;;;;;;75.72;48.53;;;;;;;-2.75;100.00;101896.97;5032982;28;20378;-74
2023/01/29 07:35:18;;;;;;;80.43;49.53;;;;;;;-2.74;100.00;101888.44;5034175;27;20037;-74
2023/01/29 07:37:43;;;;;;;79.13;47.38;;;;;;;-2.75;100.00;101882.44;5036174;27;20439;-74
2023/01/29 07:40:10;;;;;;;82.43;48.40;;;;;;;-2.82;100.00;101869.34;5038602;27;20029;-74
2023/01/29 07:42:40;;;;;;;79.85;47.17;;;;;;;-2.72;100.00;101892.78;5038272;27;20034;-75
2023/01/29 07:45:07;;;;;;;77.05;48.13;;;;;;;-2.63;100.00;101903.31;5044326;27;20029;-76
2023/01/29 07:47:32;;;;;;;73.93;46.28;;;;;;;-2.65;100.00;101889.56;5033784;27;20040;-75
2023/01/29 07:49:58;;;;;;;83.20;48.97;;;;;;;-2.57;100.00;101897.50;4984048;28;20029;-72
2023/01/29 07:52:23;;;;;;;79.63;49.13;;;;;;;-2.61;100.00;101895.66;5048142;27;20108;-76
2023/01/29 07:54:48;;;;;;;79.70;47.83;;;;;;;-2.59;100.00;101879.44;4993903;27;20030;-74
2023/01/29 07:57:14;;;;;;;81.45;46.53;;;;;;;-2.52;100.00;101884.75;4998897;27;20020;-76
2023/01/29 07:59:39;;;;;;;89.05;49.65;;;;;;;-2.47;100.00;101884.06;4990137;27;20896;-76
2023/01/29 08:02:05;;;;;;;79.10;48.58;;;;;;;-2.54;100.00;101884.72;5017450;27;20922;-73
2023/01/29 08:04:30;;;;;;;79.50;47.47;;;;;;;-2.51;100.00;101889.94;5011136;27;20057;-75
2023/01/29 08:06:56;;;;;;;79.30;47.50;;;;;;;-2.44;100.00;101902.13;5015902;27;20033;-77
2023/01/29 08:09:21;;;;;;;74.80;44.78;;;;;;;-2.57;100.00;101869.19;5022768;27;20033;-76
2023/01/29 08:11:46;;;;;;;74.03;46.15;;;;;;;-2.37;100.00;101900.59;5004845;27;20837;-76
2023/01/29 08:14:12;;;;;;;73.75;45.45;;;;;;;-2.38;100.00;101888.56;5003162;28;20895;-76
2023/01/29 08:16:37;;;;;;;74.68;48.80;;;;;;;-2.34;100.00;101880.09;5004545;28;20033;-74
2023/01/29 08:19:02;;;;;;;75.85;45.78;;;;;;;-2.39;100.00;101872.22;5024591;27;20112;-78
2023/01/29 08:21:28;;;;;;;75.72;45.40;;;;;;;-2.29;100.00;101879.34;4993464;28;20830;-76
2023/01/29 08:23:53;;;;;;;75.30;45.85;;;;;;;-2.36;100.00;101868.84;5016263;27;20029;-76
2023/01/29 08:26:19;;;;;;;76.93;46.00;;;;;;;-2.24;100.00;101888.09;5026845;27;20030;-76
2023/01/29 08:28:44;;;;;;;76.15;45.50;;;;;;;-2.32;100.00;101863.84;4994017;27;21039;-76
2023/01/29 08:31:19;;;;;;;71.85;43.85;;;;;;;-2.13;100.00;101889.19;4998456;27;20082;-78
2023/01/29 08:33:45;;;;;;;78.15;45.20;;;;;;;-2.15;100.00;101887.44;4988410;27;20502;-77
2023/01/29 08:36:10;;;;;;;81.53;49.40;;;;;;;-2.18;100.00;101872.78;5031891;27;20037;-77
2023/01/29 08:38:36;;;;;;;69.70;45.38;;;;;;;-2.03;100.00;101894.59;5015194;27;20840;-77
2023/01/29 08:41:02;;;;;;;73.82;44.92;;;;;;;-2.00;100.00;101887.84;4994352;27;20029;-77
2023/01/29 08:43:27;;;;;;;77.28;44.72;;;;;;;-1.89;100.00;101895.81;4993714;27;20227;-77
2023/01/29 08:45:53;;;;;;;73.22;45.90;;;;;;;-1.88;100.00;101900.13;4993758;27;20066;-77
2023/01/29 08:48:18;;;;;;;86.68;46.35;;;;;;;-1.80;100.00;101901.19;4997341;27;20090;-77
2023/01/29 08:50:43;;;;;;;69.47;44.67;;;;;;;-1.80;100.00;101890.88;5031440;27;20033;-77
2023/01/29 08:53:09;;;;;;;69.95;44.30;;;;;;;-1.75;100.00;101897.00;5040949;27;20942;-77
2023/01/29 08:55:39;;;;;;;71.05;43.40;;;;;;;-1.67;100.00;101903.22;5000316;27;20029;-77
2023/01/29 08:58:06;;;;;;;68.03;44.88;;;;;;;-1.76;100.00;101882.41;5003403;27;20330;-76
2023/01/29 09:00:32;;;;;;;72.95;44.20;;;;;;;-1.64;100.00;101892.97;5000411;27;20066;-77
2023/01/29 09:02:58;;;;;;;70.50;45.42;;;;;;;-1.59;100.00;101887.09;5012437;28;20074;-77
2023/01/29 09:05:24;;;;;;;74.65;44.45;;;;;;;-1.57;100.00;101869.97;5012801;28;20503;-77
2023/01/29 09:07:50;;;;;;;72.95;45.72;;;;;;;-1.62;100.00;101863.81;5002559;27;20139;-77
2023/01/29 09:10:15;;;;;;;73.10;45.15;;;;;;;-1.55;100.00;101868.28;5027177;27;20356;-76
2023/01/29 09:12:41;;;;;;;70.60;43.00;;;;;;;-1.53;100.00;101864.88;5029867;28;20033;-76
2023/01/29 09:15:07;;;;;;;68.10;43.80;;;;;;;-1.53;100.00;101870.03;5048409;27;20033;-77
2023/01/29 09:17:32;;;;;;;73.28;45.17;;;;;;;-1.52;100.00;101867.47;5057789;27;20129;-76
2023/01/29 09:19:58;;;;;;;68.57;43.08;;;;;;;-1.55;100.00;101854.53;5031327;28;20030;-76
2023/01/29 09:22:23;;;;;;;73.38;44.88;;;;;;;-1.62;100.00;101834.63;5020119;27;20447;-76
2023/01/29 09:24:48;;;;;;;74.10;44.55;;;;;;;-1.53;100.00;101836.53;5003317;27;20033;-76
2023/01/29 09:27:14;;;;;;;72.85;44.60;;;;;;;-1.52;100.00;101835.72;4992866;28;20037;-77
2023/01/29 09:29:39;;;;;;;68.20;42.35;;;;;;;-1.47;100.00;101840.13;5011056;27;20981;-76
2023/01/29 09:32:05;;;;;;;70.70;43.30;;;;;;;-1.83;100.00;101774.91;5023324;27;20374;-76
2023/01/29 09:34:31;;;;;;;66.28;43.03;;;;;;;-1.30;100.00;101843.94;5012474;28;20033;-76
2023/01/29 09:36:56;;;;;;;71.75;43.70;;;;;;;-1.19;100.00;101832.13;5033082;27;20025;-76
2023/01/29 09:39:21;;;;;;;73.15;43.95;;;;;;;-1.01;100.00;101831.63;5038514;28;20060;-75
2023/01/29 09:41:51;;;;;;;66.45;42.15;;;;;;;-0.92;100.00;101825.78;5005169;27;20021;-76
2023/01/29 09:44:41;;;;;;;58.28;41.03;;;;;;;-0.93;100.00;101824.91;4992061;27;20121;-75
2023/01/29 09:47:12;;;;;;;66.22;39.55;;;;;;;-0.82;100.00;101831.16;4998441;27;20181;-75
2023/01/29 09:49:42;;;;;;;60.13;38.50;;;;;;;-0.80;100.00;101828.59;4973911;27;20830;-77
2023/01/29 09:52:33;;;;;;;58.83;40.63;;;;;;;-0.83;100.00;101801.03;4984847;27;20319;-75
2023/01/29 09:54:58;;;;;;;64.55;41.35;;;;;;;-0.66;100.00;101827.13;4991283;27;20531;-75
2023/01/29 09:57:28;;;;;;;68.82;40.95;;;;;;;-0.60;100.00;101819.50;4988904;27;20073;-69
2023/01/29 09:59:53;;;;;;;59.58;40.13;;;;;;;-0.59;100.00;101818.66;4972283;27;20025;-74
2023/01/29 10:02:34;;;;;;;59.38;38.50;;;;;;;-0.58;100.00;101813.53;4999763;27;20136;-74
2023/01/29 10:05:07;;;;;;;59.45;38.88;;;;;;;-0.55;100.00;101812.72;5002581;27;20208;-75
2023/01/29 10:08:12;;;;;;;60.40;39.30;;;;;;;-0.39;100.00;101816.44;5002821;27;20127;-75
2023/01/29 10:10:43;;;;;;;60.83;38.17;;;;;;;-0.35;100.00;101823.38;5051326;27;20049;-75
2023/01/29 10:13:19;;;;;;;64.07;38.47;;;;;;;-0.28;100.00;101823.53;4999899;27;20021;-75
2023/01/29 10:15:53;;;;;;;59.78;38.60;;;;;;;-0.27;100.00;101822.66;4976298;28;20041;-74
2023/01/29 10:18:49;;;;;;;61.10;37.40;;;;;;;-0.23;100.00;101831.31;5006366;27;20121;-75
2023/01/29 10:21:41;;;;;;;56.42;36.05;;;;;;;-0.11;100.00;101824.69;4986080;28;20040;-75
2023/01/29 10:24:21;;;;;;;57.35;37.15;;;;;;;-0.09;100.00;101825.56;4991638;28;20264;-74
2023/01/29 10:26:46;;;;;;;51.28;36.83;;;;;;;-0.22;100.00;101808.13;4976720;28;20039;-75
2023/01/29 10:29:15;;;;;;;55.95;36.85;;;;;;;-0.11;100.00;101810.88;4989926;27;20037;-76
2023/01/29 10:31:41;;;;;;;57.35;35.85;;;;;;;-0.12;100.00;101804.84;4986772;28;20090;-75
2023/01/29 10:34:22;;;;;;;51.67;36.22;;;;;;;0.07;100.00;101805.16;4979860;27;20926;-75
2023/01/29 10:36:48;;;;;;;53.72;37.25;;;;;;;0.07;100.00;101816.31;5010984;28;20039;-73
2023/01/29 10:39:22;;;;;;;55.28;36.03;;;;;;;0.02;100.00;101791.28;4980616;28;20034;-74
2023/01/29 10:42:06;;;;;;;57.17;35.75;;;;;;;0.15;100.00;101808.69;4982343;28;20045;-71
2023/01/29 10:44:39;;;;;;;54.35;38.10;;;;;;;0.16;100.00;101818.19;5014565;27;20041;-74
2023/01/29 10:47:10;;;;;;;56.20;37.83;;;;;;;0.15;100.00;101813.84;4993396;27;20025;-79
2023/01/29 10:50:12;;;;;;;56.80;34.75;;;;;;;0.04;100.00;101805.06;5000462;27;20084;-73
2023/01/29 10:52:43;;;;;;;55.78;35.97;;;;;;;0.08;100.00;101806.84;4988623;27;20900;-70
2023/01/29 10:55:36;;;;;;;53.75;36.20;;;;;;;0.07;100.00;101805.16;5003293;27;20037;-74
2023/01/29 10:58:33;;;;;;;58.25;35.85;;;;;;;0.07;100.00;101792.22;4992040;27;20038;-80
2023/01/29 11:00:59;;;;;;;54.70;36.72;;;;;;;0.10;100.00;101797.44;4979295;28;20037;-72
2023/01/29 11:03:30;;;;;;;55.28;35.97;;;;;;;0.09;100.00;101795.69;4991182;27;20033;-73
2023/01/29 11:06:14;;;;;;;57.85;36.55;;;;;;;0.06;100.00;101782.72;5019558;27;20034;-71
2023/01/29 11:08:55;;;;;;;50.87;35.20;;;;;;;0.08;100.00;101786.19;5000013;27;20043;-75
2023/01/29 11:11:28;;;;;;;54.65;36.25;;;;;;;0.11;100.00;101783.66;4972362;27;20033;-73
2023/01/29 11:13:59;;;;;;;52.33;36.10;;;;;;;-0.31;100.00;101735.69;4992807;27;20066;-69
2023/01/29 11:16:26;;;;;;;58.55;35.60;;;;;;;0.06;100.00;101774.97;5020673;27;20180;-76
2023/01/29 11:19:00;;;;;;;56.70;34.67;;;;;;;0.13;100.00;101776.81;4972530;28;20037;-75
2023/01/29 11:21:27;;;;;;;52.45;35.45;;;;;;;0.21;100.00;101776.06;4995656;27;20143;-73
2023/01/29 11:24:16;;;;;;;56.30;35.47;;;;;;;0.07;100.00;101759.47;4979962;27;20128;-72
2023/01/29 11:26:42;;;;;;;53.00;33.95;;;;;;;0.22;100.00;101770.03;4982758;28;20129;-73
2023/01/29 11:29:31;;;;;;;52.38;34.35;;;;;;;0.26;100.00;101766.66;4999949;27;20025;-72
2023/01/29 11:31:57;;;;;;;56.72;34.63;;;;;;;0.10;100.00;101738.00;5021655;27;20239;-73
2023/01/29 11:34:26;;;;;;;51.70;35.35;;;;;;;0.21;100.00;101754.50;4993528;27;20021;-75
2023/01/29 11:37:03;;;;;;;50.40;34.63;;;;;;;0.28;100.00;101756.31;5021410;27;20031;-75
2023/01/29 11:39:30;;;;;;;56.75;33.58;;;;;;;0.29;100.00;101750.31;4987493;28;20032;-71
2023/01/29 11:42:02;;;;;;;51.92;34.35;;;;;;;0.24;100.00;101741.63;4977808;27;20204;-72